Time;durP1;ratioP1;P1;durP2;ratioP2;P2;SDS_P1;SDS_P2;PMS_P1;PMS_P2;Temp;Humidity;BMP_temperature;BMP_pressure;BME280_temperature;BME280_humidity;BME280_pressure;Samples;Min_cycle;Max_cycle;Signal;HPM_P1;HPM_P2
2022/03/07 00:02:38;;;;;;;;;;;;;;;21.62;22.94;95930.34;10398294;28;1862;-73
2022/03/07 00:07:39;;;;;;;;;;;;;;;21.59;22.81;95920.34;10413931;28;2196;-72
2022/03/07 00:12:39;;;;;;;;;;;;;;;21.59;22.97;95925.63;10406860;28;1865;-73
2022/03/07 00:17:40;;;;;;;;;;;;;;;21.61;22.86;95928.78;10428944;28;1984;-74
2022/03/07 00:22:40;;;;;;;;;;;;;;;21.63;22.80;95931.94;10425607;28;1771;-73
2022/03/07 00:27:41;;;;;;;;;;;;;;;21.63;23.03;95939.06;10444197;28;1779;-72
2022/03/07 00:32:42;;;;;;;;;;;;;;;21.64;22.74;95924.78;10436611;28;1830;-73
2022/03/07 00:37:43;;;;;;;;;;;;;;;21.65;22.79;95934.28;10421417;28;1918;-73
2022/03/07 00:42:47;;;;;;;;;;;;;;;21.69;22.67;95928.19;10444910;28;1853;-74
2022/03/07 00:47:48;;;;;;;;;;;;;;;21.65;22.68;95939.56;10425124;28;1805;-74
2022/03/07 00:52:49;;;;;;;;;;;;;;;21.66;22.85;95930.56;10423269;28;1910;-72
2022/03/07 00:57:49;;;;;;;;;;;;;;;21.69;22.50;95922.13;10406614;28;1976;-74
2022/03/07 01:02:50;;;;;;;;;;;;;;;21.68;22.63;95915.25;10422981;28;1843;-74
2022/03/07 01:07:51;;;;;;;;;;;;;;;21.66;22.46;95922.66;10426518;28;1807;-74
2022/03/07 01:12:51;;;;;;;;;;;;;;;21.68;22.63;95920.53;10445933;28;1803;-73
2022/03/07 01:17:54;;;;;;;;;;;;;;;21.67;22.65;95919.75;10415892;28;1973;-72
2022/03/07 01:22:54;;;;;;;;;;;;;;;21.68;22.59;95923.16;10415878;28;1858;-74
2022/03/07 01:27:55;;;;;;;;;;;;;;;21.65;22.45;95918.47;10412912;28;2349;-76
2022/03/07 01:32:55;;;;;;;;;;;;;;;21.65;22.41;95927.16;10399042;28;1809;-74
2022/03/07 01:37:56;;;;;;;;;;;;;;;21.66;22.32;95922.66;10387202;28;1979;-74
2022/03/07 01:42:57;;;;;;;;;;;;;;;21.64;22.35;95916.88;10428287;28;2294;-73
2022/03/07 01:47:57;;;;;;;;;;;;;;;21.64;22.14;95916.88;10414434;28;1890;-73
2022/03/07 01:52:57;;;;;;;;;;;;;;;21.63;22.24;95920.59;10423942;28;1953;-73
2022/03/07 01:57:58;;;;;;;;;;;;;;;21.64;22.16;95915.03;10414911;28;1943;-73
2022/03/07 02:02:58;;;;;;;;;;;;;;;21.63;22.42;95910.81;10404125;28;1974;-74
2022/03/07 02:07:59;;;;;;;;;;;;;;;21.65;22.16;95902.63;10434110;28;1886;-74
2022/03/07 02:12:59;;;;;;;;;;;;;;;21.65;22.29;95908.69;10427197;28;1886;-74
2022/03/07 02:18:00;;;;;;;;;;;;;;;21.64;22.35;95899.19;10435819;28;1928;-74
2022/03/07 02:23:02;;;;;;;;;;;;;;;21.66;22.18;95912.09;10439263;28;1925;-74
2022/03/07 02:28:08;;;;;;;;;;;;;;;21.63;22.50;95912.66;10432901;28;1924;-74
2022/03/07 02:33:13;;;;;;;;;;;;;;;21.64;22.19;95914.22;10452236;28;1924;-75
2022/03/07 02:38:16;;;;;;;;;;;;;;;21.64;22.54;95911.59;10413206;28;1990;-75
2022/03/07 02:43:16;;;;;;;;;;;;;;;21.62;22.51;95909.25;10405010;28;2307;-75
2022/03/07 02:48:18;;;;;;;;;;;;;;;21.62;22.38;95917.16;10442608;28;2028;-74
2022/03/07 02:53:18;;;;;;;;;;;;;;;21.61;22.45;95920.88;10410542;28;2321;-75
2022/03/07 02:58:19;;;;;;;;;;;;;;;21.61;22.35;95912.16;10413023;28;1902;-74
2022/03/07 03:03:20;;;;;;;;;;;;;;;21.60;22.35;95914.00;10438158;28;1957;-74
2022/03/07 03:08:23;;;;;;;;;;;;;;;21.60;22.10;95916.63;10432119;28;2389;-74
2022/03/07 03:13:24;;;;;;;;;;;;;;;21.61;22.29;95922.72;10419398;28;2005;-73
2022/03/07 03:18:24;;;;;;;;;;;;;;;21.58;22.11;95920.59;10429432;28;1977;-74
2022/03/07 03:23:25;;;;;;;;;;;;;;;21.60;22.22;95921.91;10420208;28;1922;-74
2022/03/07 03:28:26;;;;;;;;;;;;;;;21.60;21.90;95921.91;10426373;28;2038;-74
2022/03/07 03:33:26;;;;;;;;;;;;;;;21.61;22.01;95925.34;10461079;28;1987;-75
2022/03/07 03:38:28;;;;;;;;;;;;;;;21.60;21.88;95923.75;10411406;28;1986;-74
2022/03/07 03:43:28;;;;;;;;;;;;;;;21.58;21.95;95920.59;10440692;28;2001;-74
2022/03/07 03:48:29;;;;;;;;;;;;;;;21.59;21.93;95909.81;10408177;28;2082;-74
2022/03/07 03:53:29;;;;;;;;;;;;;;;21.59;21.90;95922.19;10435275;28;1933;-74
2022/03/07 03:58:29;;;;;;;;;;;;;;;21.59;22.00;95930.13;10393549;28;2071;-74
2022/03/07 04:03:30;;;;;;;;;;;;;;;21.59;21.94;95924.84;10423667;28;2011;-74
2022/03/07 04:08:33;;;;;;;;;;;;;;;21.58;21.84;95928.53;10440214;28;1985;-75
2022/03/07 04:13:33;;;;;;;;;;;;;;;21.57;22.19;95921.69;10422683;28;2153;-74
2022/03/07 04:18:33;;;;;;;;;;;;;;;21.58;21.91;95931.16;10453741;28;1940;-73
2022/03/07 04:23:34;;;;;;;;;;;;;;;21.55;21.93;95915.91;10434060;28;2028;-74
2022/03/07 04:28:34;;;;;;;;;;;;;;;21.55;21.91;95908.00;10415728;28;1698;-75
2022/03/07 04:33:35;;;;;;;;;;;;;;;21.55;22.08;95916.69;10430945;28;1962;-74
2022/03/07 04:38:36;;;;;;;;;;;;;;;21.54;21.86;95933.56;10439403;28;2019;-74
2022/03/07 04:43:37;;;;;;;;;;;;;;;21.54;21.86;95932.78;10426810;28;1846;-75
2022/03/07 04:48:38;;;;;;;;;;;;;;;21.52;21.72;95927.00;10432665;28;2000;-74
2022/03/07 04:53:39;;;;;;;;;;;;;;;21.53;21.64;95931.22;10406026;28;1894;-74
2022/03/07 04:58:39;;;;;;;;;;;;;;;21.51;21.73;95926.22;10412224;28;1989;-73
2022/03/07 05:03:40;;;;;;;;;;;;;;;21.51;21.65;95926.22;10417284;28;1984;-74
2022/03/07 05:08:41;;;;;;;;;;;;;;;21.49;21.63;95925.72;10443255;28;2013;-75
2022/03/07 05:13:41;;;;;;;;;;;;;;;21.49;21.46;95924.91;10433018;28;1988;-74
2022/03/07 05:18:42;;;;;;;;;;;;;;;21.50;21.72;95932.53;10419963;23;1942;-53
2022/03/07 05:23:43;;;;;;;;;;;;;;;21.49;21.60;95936.25;10479842;28;1933;-53
2022/03/07 05:28:43;;;;;;;;;;;;;;;21.48;21.49;95929.41;10460245;28;1893;-55
2022/03/07 05:33:44;;;;;;;;;;;;;;;21.49;21.53;95938.09;10457084;28;1968;-52
2022/03/07 05:38:44;;;;;;;;;;;;;;;21.50;21.73;95937.03;10454217;28;1985;-55
2022/03/07 05:43:45;;;;;;;;;;;;;;;21.50;21.75;95937.03;10459734;28;2007;-57
2022/03/07 05:48:46;;;;;;;;;;;;;;;21.47;21.36;95932.31;10486249;28;1944;-53
2022/03/07 05:53:46;;;;;;;;;;;;;;;21.46;21.53;95934.16;10470262;28;2003;-55
2022/03/07 05:58:46;;;;;;;;;;;;;;;21.48;21.80;95937.31;10489446;28;1922;-55
2022/03/07 06:03:47;;;;;;;;;;;;;;;21.46;21.73;95939.44;10473482;28;2006;-56
2022/03/07 06:08:47;;;;;;;;;;;;;;;21.46;21.36;95944.72;10476703;28;2055;-55
2022/03/07 06:13:47;;;;;;;;;;;;;;;21.47;21.39;95948.13;10472849;28;1885;-52
2022/03/07 06:18:48;;;;;;;;;;;;;;;21.46;21.59;95949.97;10472504;28;1940;-52
2022/03/07 06:23:48;;;;;;;;;;;;;;;21.46;21.46;95946.56;10469787;28;2143;-54
2022/03/07 06:28:48;;;;;;;;;;;;;;;21.50;21.62;95958.13;10471075;28;1850;-55
2022/03/07 06:33:49;;;;;;;;;;;;;;;21.49;21.81;95967.91;10471757;28;1908;-52
2022/03/07 06:38:49;;;;;;;;;;;;;;;21.50;21.49;95961.56;10470229;28;1973;-52
2022/03/07 06:43:49;;;;;;;;;;;;;;;21.50;21.46;95969.47;10463046;28;2377;-53
2022/03/07 06:48:49;;;;;;;;;;;;;;;21.51;21.71;95980.81;10471058;28;1932;-53
2022/03/07 06:53:50;;;;;;;;;;;;;;;21.48;21.55;95982.16;10490600;28;1884;-50
2022/03/07 06:58:50;;;;;;;;;;;;;;;21.50;21.68;95984.50;10476769;28;1944;-54
2022/03/07 07:03:50;;;;;;;;;;;;;;;21.52;21.74;95977.91;10483197;28;1979;-52
2022/03/07 07:08:51;;;;;;;;;;;;;;;21.51;21.90;95970.25;10476719;28;1900;-57
2022/03/07 07:13:51;;;;;;;;;;;;;;;21.57;21.75;95974.44;10476680;28;1876;-53
2022/03/07 07:18:51;;;;;;;;;;;;;;;21.57;22.00;95980.50;10450151;22;3446;-43
2022/03/07 07:23:52;;;;;;;;;;;;;;;21.56;21.81;95975.50;10397760;28;1965;-45
2022/03/07 07:28:52;;;;;;;;;;;;;;;21.55;22.32;95979.22;10408458;28;1988;-45
2022/03/07 07:33:52;;;;;;;;;;;;;;;21.57;22.63;95988.44;10411114;28;1871;-45
2022/03/07 07:38:53;;;;;;;;;;;;;;;21.62;22.74;95995.50;10401481;28;1914;-43
2022/03/07 07:43:53;;;;;;;;;;;;;;;21.65;22.99;96002.88;10405313;28;1882;-43
2022/03/07 07:48:53;;;;;;;;;;;;;;;21.66;22.73;96015.00;10405528;28;1966;-44
2022/03/07 07:53:54;;;;;;;;;;;;;;;21.65;23.05;96019.50;10411237;28;1958;-44
2022/03/07 07:58:54;;;;;;;;;;;;;;;21.68;23.27;96026.84;10386695;28;2220;-41
2022/03/07 08:03:56;;;;;;;;;;;;;;;21.74;23.20;96028.41;10403819;28;1905;-42
2022/03/07 08:08:57;;;;;;;;;;;;;;;21.74;22.99;96030.28;10402633;28;2046;-42
2022/03/07 08:13:57;;;;;;;;;;;;;;;21.75;23.06;96043.19;10402624;28;2046;-43
2022/03/07 08:18:57;;;;;;;;;;;;;;;21.79;23.23;96051.31;10386091;28;2119;-43
2022/03/07 08:24:00;;;;;;;;;;;;;;;21.82;23.29;96042.91;10384548;28;1941;-42
2022/03/07 08:29:00;;;;;;;;;;;;;;;21.82;23.53;96056.09;10404075;28;1961;-43
2022/03/07 08:34:01;;;;;;;;;;;;;;;21.85;23.44;96063.47;10385023;28;1993;-40
2022/03/07 08:39:01;;;;;;;;;;;;;;;21.85;23.40;96056.34;10397079;28;1975;-44
2022/03/07 08:44:02;;;;;;;;;;;;;;;21.90;23.72;96057.38;10400940;28;1961;-44
2022/03/07 08:49:04;;;;;;;;;;;;;;;21.94;23.60;96063.66;10389375;28;1961;-42
2022/03/07 08:54:04;;;;;;;;;;;;;;;21.94;23.54;96064.47;10384631;28;1901;-44
2022/03/07 08:59:05;;;;;;;;;;;;;;;21.96;23.88;96069.47;10402904;28;1926;-44
2022/03/07 09:04:05;;;;;;;;;;;;;;;21.90;22.75;96076.63;10388784;28;2040;-48
2022/03/07 09:09:06;;;;;;;;;;;;;;;21.80;22.26;96077.44;10404952;28;1922;-45
2022/03/07 09:14:06;;;;;;;;;;;;;;;21.88;23.09;96079.53;10383160;28;1966;-44
2022/03/07 09:19:06;;;;;;;;;;;;;;;21.90;23.44;96074.00;10383320;28;2185;-44
2022/03/07 09:24:07;;;;;;;;;;;;;;;21.95;23.55;96079.22;10409351;28;1978;-43
2022/03/07 09:29:10;;;;;;;;;;;;;;;21.98;23.34;96086.59;10386935;28;2029;-41
2022/03/07 09:34:12;;;;;;;;;;;;;;;21.98;23.30;96094.53;10395567;28;1971;-47
2022/03/07 09:39:12;;;;;;;;;;;;;;;22.00;23.37;96097.69;10398423;28;1981;-45
2022/03/07 09:44:13;;;;;;;;;;;;;;;22.01;23.54;96096.59;10405849;28;1992;-47
2022/03/07 09:49:13;;;;;;;;;;;;;;;22.00;23.51;96108.25;10402521;28;1922;-45
2022/03/07 09:54:13;;;;;;;;;;;;;;;22.04;23.51;96122.47;10401903;28;2052;-44
2022/03/07 09:59:15;;;;;;;;;;;;;;;22.02;23.52;96111.41;10402727;28;2005;-48
2022/03/07 10:04:15;;;;;;;;;;;;;;;21.96;22.59;96112.50;10385155;28;1996;-43
2022/03/07 10:09:22;;;;;;;;;;;;;;;21.78;22.57;96123.66;10400754;28;1831;-41
2022/03/07 10:14:29;;;;;;;;;;;;;;;21.73;22.43;96126.31;10402401;28;1851;-47
2022/03/07 10:19:29;;;;;;;;;;;;;;;21.72;22.48;96124.75;10399729;28;1910;-48
2022/03/07 10:24:32;;;;;;;;;;;;;;;21.68;22.60;96132.38;10404092;28;1927;-44
2022/03/07 10:29:32;;;;;;;;;;;;;;;21.70;22.47;96126.88;10381883;28;1874;-45
2022/03/07 10:34:35;;;;;;;;;;;;;;;21.73;22.35;96127.09;10392226;28;1905;-50
2022/03/07 10:39:36;;;;;;;;;;;;;;;21.69;22.43;96128.72;10410333;28;2152;-44
2022/03/07 10:44:38;;;;;;;;;;;;;;;21.67;22.42;96130.81;10393665;28;1797;-43
2022/03/07 10:49:47;;;;;;;;;;;;;;;21.65;22.14;96134.78;10394593;28;1841;-47
2022/03/07 10:54:49;;;;;;;;;;;;;;;21.65;22.38;96126.88;10388923;28;1879;-47
2022/03/07 10:59:49;;;;;;;;;;;;;;;21.66;21.37;96131.88;10387259;28;1914;-48
2022/03/07 11:04:50;;;;;;;;;;;;;;;21.72;22.05;96124.75;10405132;28;1792;-45
2022/03/07 11:09:52;;;;;;;;;;;;;;;21.82;22.90;96120.22;10401272;28;1871;-47
2022/03/07 11:14:52;;;;;;;;;;;;;;;21.85;22.45;96118.88;10410569;28;1950;-43
2022/03/07 11:19:54;;;;;;;;;;;;;;;21.85;22.66;96116.25;10395708;28;1985;-43
2022/03/07 11:24:54;;;;;;;;;;;;;;;21.90;23.36;96121.50;10389767;28;1829;-46
2022/03/07 11:29:57;;;;;;;;;;;;;;;21.95;23.75;96113.53;10374174;28;1744;-46
2022/03/07 11:34:58;;;;;;;;;;;;;;;21.93;24.07;96115.66;10411144;28;1843;-43
2022/03/07 11:39:59;;;;;;;;;;;;;;;21.86;23.66;96115.19;10394796;28;2440;-40
2022/03/07 11:45:04;;;;;;;;;;;;;;;21.85;23.61;96116.25;10380211;28;1827;-42
2022/03/07 11:50:04;;;;;;;;;;;;;;;21.76;23.39;96102.03;10392518;28;2244;-40
2022/03/07 11:55:12;;;;;;;;;;;;;;;21.71;23.12;96099.41;10380179;28;1736;-41
2022/03/07 12:00:21;;;;;;;;;;;;;;;21.70;23.76;96100.47;10404692;28;1902;-46
2022/03/07 12:05:25;;;;;;;;;;;;;;;21.70;24.00;96084.66;10393979;28;1789;-44
2022/03/07 12:10:26;;;;;;;;;;;;;;;21.75;24.26;96082.75;10386376;28;2000;-45
2022/03/07 12:15:26;;;;;;;;;;;;;;;21.79;24.14;96088.28;10390311;28;1788;-40
2022/03/07 12:20:26;;;;;;;;;;;;;;;21.77;24.37;96082.47;10378605;28;1902;-42
2022/03/07 12:25:26;;;;;;;;;;;;;;;21.77;24.49;96080.63;10382931;28;1816;-48
2022/03/07 12:30:27;;;;;;;;;;;;;;;21.78;24.50;96069.00;10384343;28;1796;-43
2022/03/07 12:35:27;;;;;;;;;;;;;;;21.81;24.39;96075.59;10408337;28;1958;-41
2022/03/07 12:40:28;;;;;;;;;;;;;;;21.79;24.47;96077.72;10384928;28;1970;-43
2022/03/07 12:45:28;;;;;;;;;;;;;;;21.82;24.54;96069.31;10384829;28;1836;-41
2022/03/07 12:50:30;;;;;;;;;;;;;;;21.81;24.75;96059.75;10384664;28;1832;-45
2022/03/07 12:55:30;;;;;;;;;;;;;;;21.84;24.55;96051.34;10401858;28;1765;-46
2022/03/07 13:00:32;;;;;;;;;;;;;;;21.85;24.71;96058.19;10394451;28;1917;-47
2022/03/07 13:05:32;;;;;;;;;;;;;;;21.88;24.47;96047.09;10392079;28;1719;-47
2022/03/07 13:10:32;;;;;;;;;;;;;;;21.88;24.20;96047.09;10364886;28;1867;-45
2022/03/07 13:15:42;;;;;;;;;;;;;;;21.78;23.19;96055.03;10394583;28;1832;-47
2022/03/07 13:20:43;;;;;;;;;;;;;;;21.78;23.22;96047.13;10393409;28;1924;-41
2022/03/07 13:25:44;;;;;;;;;;;;;;;21.75;23.14;96045.81;10400064;23;2925;-56
2022/03/07 13:30:48;;;;;;;;;;;;;;;21.78;23.02;96049.78;10417773;28;1922;-54
2022/03/07 13:35:49;;;;;;;;;;;;;;;21.74;22.96;96054.78;10407105;28;1813;-54
2022/03/07 13:40:49;;;;;;;;;;;;;;;21.71;23.03;96054.56;10436364;28;2219;-57
2022/03/07 13:45:50;;;;;;;;;;;;;;;21.68;22.53;96049.81;10415087;28;1839;-53
2022/03/07 13:50:52;;;;;;;;;;;;;;;21.70;23.27;96040.56;10440500;28;1848;-54
2022/03/07 13:55:56;;;;;;;;;;;;;;;21.78;23.04;96045.25;10434785;28;1783;-53
2022/03/07 14:01:06;;;;;;;;;;;;;;;21.76;22.88;96047.38;10436892;28;1906;-52
2022/03/07 14:06:08;;;;;;;;;;;;;;;21.74;22.64;96048.75;10416183;28;1858;-55
2022/03/07 14:11:09;;;;;;;;;;;;;;;21.73;22.73;96049.78;10432488;28;1894;-56
2022/03/07 14:16:11;;;;;;;;;;;;;;;21.78;23.16;96053.16;10441899;28;2084;-53
2022/03/07 14:21:12;;;;;;;;;;;;;;;21.77;22.91;96053.44;10444863;28;1969;-52
2022/03/07 14:26:13;;;;;;;;;;;;;;;21.75;22.83;96060.84;10444338;28;1909;-54
2022/03/07 14:31:13;;;;;;;;;;;;;;;21.77;23.09;96054.25;10442421;28;1961;-54
2022/03/07 14:36:14;;;;;;;;;;;;;;;21.72;22.93;96066.69;10428195;28;1974;-52
2022/03/07 14:41:14;;;;;;;;;;;;;;;21.72;22.97;96061.41;10430322;28;2151;-54
2022/03/07 14:46:14;;;;;;;;;;;;;;;21.72;22.97;96064.81;10426227;28;2057;-53
2022/03/07 14:51:15;;;;;;;;;;;;;;;21.72;23.22;96058.78;10441705;28;1853;-53
2022/03/07 14:56:16;;;;;;;;;;;;;;;21.69;22.88;96061.94;10411327;28;1653;-53
2022/03/07 15:01:16;;;;;;;;;;;;;;;21.67;22.53;96056.16;10446869;28;1910;-52
2022/03/07 15:06:17;;;;;;;;;;;;;;;21.67;22.36;96053.53;10439231;28;2076;-55
2022/03/07 15:11:17;;;;;;;;;;;;;;;21.68;23.00;96060.34;10420900;28;1983;-50
2022/03/07 15:16:17;;;;;;;;;;;;;;;21.68;22.57;96049.81;10423202;28;2466;-54
2022/03/07 15:21:18;;;;;;;;;;;;;;;21.70;23.04;96051.13;10426514;28;1965;-54
2022/03/07 15:26:18;;;;;;;;;;;;;;;21.72;23.05;96048.22;10418365;28;1966;-54
2022/03/07 15:31:19;;;;;;;;;;;;;;;21.70;22.71;96031.88;10425011;28;1928;-54
2022/03/07 15:36:19;;;;;;;;;;;;;;;21.66;23.01;96050.09;10422970;28;1867;-53
2022/03/07 15:41:20;;;;;;;;;;;;;;;21.66;23.06;96033.47;10424970;28;1886;-51
2022/03/07 15:46:20;;;;;;;;;;;;;;;21.61;22.79;96030.88;10439716;28;1954;-54
2022/03/07 15:51:21;;;;;;;;;;;;;;;21.62;22.83;96035.88;10443929;28;1772;-52
2022/03/07 15:56:22;;;;;;;;;;;;;;;21.61;22.60;96031.66;10441532;28;1801;-52
2022/03/07 16:01:22;;;;;;;;;;;;;;;21.63;22.79;96023.47;10443809;28;1925;-55
2022/03/07 16:06:22;;;;;;;;;;;;;;;21.60;22.86;96031.91;10442396;28;1911;-53
2022/03/07 16:11:23;;;;;;;;;;;;;;;21.57;22.58;96037.75;10424270;28;1748;-55
2022/03/07 16:16:24;;;;;;;;;;;;;;;21.55;22.50;96040.66;10440758;28;1716;-54
2022/03/07 16:21:25;;;;;;;;;;;;;;;21.55;22.46;96038.03;10425354;28;1965;-52
2022/03/07 16:26:25;;;;;;;;;;;;;;;21.56;22.64;96052.78;10417457;28;1842;-55
2022/03/07 16:31:26;;;;;;;;;;;;;;;21.55;22.49;96055.69;10422817;28;1987;-55
2022/03/07 16:36:26;;;;;;;;;;;;;;;21.55;22.79;96068.88;10426446;28;1815;-50
2022/03/07 16:41:27;;;;;;;;;;;;;;;21.52;22.34;96072.84;10442344;28;1905;-55
2022/03/07 16:46:28;;;;;;;;;;;;;;;21.56;22.62;96065.19;10411833;28;1986;-52
2022/03/07 16:51:28;;;;;;;;;;;;;;;21.53;22.89;96068.38;10423188;28;1854;-52
2022/03/07 16:56:28;;;;;;;;;;;;;;;21.56;22.79;96075.72;10413763;28;1893;-56
2022/03/07 17:01:31;;;;;;;;;;;;;;;21.53;22.75;96078.94;10422228;28;1906;-57
2022/03/07 17:06:32;;;;;;;;;;;;;;;21.55;23.20;96082.88;10426804;28;1895;-57
2022/03/07 17:11:33;;;;;;;;;;;;;;;21.55;23.11;96090.78;10419496;28;1935;-58
2022/03/07 17:16:33;;;;;;;;;;;;;;;21.57;23.13;96096.59;10436008;28;1797;-56
2022/03/07 17:21:34;;;;;;;;;;;;;;;21.60;23.07;96097.88;10435377;28;1965;-56
2022/03/07 17:26:37;;;;;;;;;;;;;;;21.59;23.25;96096.31;10420934;28;1842;-56
2022/03/07 17:31:38;;;;;;;;;;;;;;;21.62;23.20;96103.66;10423416;28;1796;-56
2022/03/07 17:36:39;;;;;;;;;;;;;;;21.65;23.31;96103.94;10421499;28;2073;-57
2022/03/07 17:41:39;;;;;;;;;;;;;;;21.64;23.22;96117.38;10420639;28;1954;-57
2022/03/07 17:46:40;;;;;;;;;;;;;;;21.67;23.33;96124.75;10434992;28;1818;-57
2022/03/07 17:51:41;;;;;;;;;;;;;;;21.70;23.21;96122.34;10442203;28;1841;-57
2022/03/07 17:56:41;;;;;;;;;;;;;;;21.74;23.11;96125.25;10404747;28;1946;-58
2022/03/07 18:01:43;;;;;;;;;;;;;;;21.71;23.20;96133.72;10425892;28;1903;-57
2022/03/07 18:06:45;;;;;;;;;;;;;;;21.74;23.16;96144.50;10404672;28;1892;-55
2022/03/07 18:11:46;;;;;;;;;;;;;;;21.75;23.07;96151.38;10420547;28;1792;-55
2022/03/07 18:16:46;;;;;;;;;;;;;;;21.69;22.15;96147.19;10420822;28;1860;-55
2022/03/07 18:21:47;;;;;;;;;;;;;;;21.64;21.88;96155.09;10440675;28;1972;-52
2022/03/07 18:26:48;;;;;;;;;;;;;;;21.65;22.19;96166.44;10437742;28;1764;-55
2022/03/07 18:31:49;;;;;;;;;;;;;;;21.67;21.81;96178.31;10421603;28;1906;-55
2022/03/07 18:36:49;;;;;;;;;;;;;;;21.63;21.07;96181.75;10417449;28;1860;-55
2022/03/07 18:41:50;;;;;;;;;;;;;;;21.63;21.75;96179.13;10419817;28;2045;-53
2022/03/07 18:46:50;;;;;;;;;;;;;;;21.69;22.29;96189.38;10439110;28;1799;-52
2022/03/07 18:51:51;;;;;;;;;;;;;;;21.70;22.23;96195.47;10439524;28;1954;-59
2022/03/07 18:56:52;;;;;;;;;;;;;;;21.73;22.33;96195.72;10452809;28;1811;-55
2022/03/07 19:01:55;;;;;;;;;;;;;;;21.79;22.70;96199.91;10424745;28;3584;-55
2022/03/07 19:06:56;;;;;;;;;;;;;;;21.75;22.27;96195.44;10423838;28;3324;-55
2022/03/07 19:11:56;;;;;;;;;;;;;;;21.71;22.31;96197.81;10425904;28;1920;-56
2022/03/07 19:16:56;;;;;;;;;;;;;;;21.69;22.04;96188.59;10439780;28;1900;-57
2022/03/07 19:21:56;;;;;;;;;;;;;;;21.66;22.43;96197.81;10429399;28;1914;-54
2022/03/07 19:26:58;;;;;;;;;;;;;;;21.64;22.10;96197.31;10449210;22;2308;-68
2022/03/07 19:31:59;;;;;;;;;;;;;;;21.62;22.18;96206.53;10443771;28;1922;-69
2022/03/07 19:36:59;;;;;;;;;;;;;;;21.63;22.13;96189.66;10431951;28;1893;-68
2022/03/07 19:42:00;;;;;;;;;;;;;;;21.58;21.93;96203.66;10441010;28;2021;-69
2022/03/07 19:47:00;;;;;;;;;;;;;;;21.59;22.06;96210.53;10438593;28;2014;-68
2022/03/07 19:52:02;;;;;;;;;;;;;;;21.60;22.69;96213.94;10438683;28;1826;-69
2022/03/07 19:57:02;;;;;;;;;;;;;;;21.65;22.17;96211.28;10430322;28;1881;-70
2022/03/07 20:02:03;;;;;;;;;;;;;;;21.60;21.78;96217.38;10442849;28;1960;-68
2022/03/07 20:07:04;;;;;;;;;;;;;;;21.58;21.94;96216.84;10435587;28;1909;-69
2022/03/07 20:12:04;;;;;;;;;;;;;;;21.59;21.32;96215.00;10437381;28;1748;-69
2022/03/07 20:17:05;;;;;;;;;;;;;;;21.57;21.45;96227.69;10407839;28;1860;-69
2022/03/07 20:22:06;;;;;;;;;;;;;;;21.56;20.95;96226.09;10438346;28;1902;-68
2022/03/07 20:27:06;;;;;;;;;;;;;;;21.54;21.12;96223.72;10408514;28;1881;-68
2022/03/07 20:32:07;;;;;;;;;;;;;;;21.54;21.22;96229.00;10423219;28;1805;-68
2022/03/07 20:37:07;;;;;;;;;;;;;;;21.52;20.85;96222.41;10423421;28;1858;-68
2022/03/07 20:42:07;;;;;;;;;;;;;;;21.50;20.69;96219.25;10414613;28;1957;-69
2022/03/07 20:47:08;;;;;;;;;;;;;;;21.51;20.41;96218.19;10405964;28;1737;-68
2022/03/07 20:52:08;;;;;;;;;;;;;;;21.54;20.63;96215.00;10399467;28;1897;-69
2022/03/07 20:57:09;;;;;;;;;;;;;;;21.51;21.25;96212.94;10420990;28;2084;-69
2022/03/07 21:02:10;;;;;;;;;;;;;;;21.52;20.82;96210.00;10399255;28;1910;-69
2022/03/07 21:07:10;;;;;;;;;;;;;;;21.56;21.56;96210.25;10443154;28;1775;-72
2022/03/07 21:12:11;;;;;;;;;;;;;;;21.53;20.76;96203.69;10433589;28;2164;-72
2022/03/07 21:17:12;;;;;;;;;;;;;;;21.56;21.63;96204.97;10437790;28;1956;-68
2022/03/07 21:22:12;;;;;;;;;;;;;;;21.51;21.20;96200.53;10448297;28;1971;-71
2022/03/07 21:27:12;;;;;;;;;;;;;;;21.48;21.29;96197.63;10436753;28;1934;-70
2022/03/07 21:32:13;;;;;;;;;;;;;;;21.46;21.26;96199.75;10425855;28;1993;-71
2022/03/07 21:37:14;;;;;;;;;;;;;;;21.42;21.71;96201.34;10404042;28;1812;-73
2022/03/07 21:42:15;;;;;;;;;;;;;;;21.49;21.00;96193.94;10419086;28;1983;-74
2022/03/07 21:47:15;;;;;;;;;;;;;;;21.47;20.74;96191.59;10421814;28;1836;-73
2022/03/07 21:52:15;;;;;;;;;;;;;;;21.42;20.79;96193.41;10409687;28;1883;-74
2022/03/07 21:57:16;;;;;;;;;;;;;;;21.43;20.71;96195.78;10440934;28;1794;-73
2022/03/07 22:02:17;;;;;;;;;;;;;;;21.42;20.78;96185.50;10386263;28;1910;-74
2022/03/07 22:07:19;;;;;;;;;;;;;;;21.39;20.75;96176.28;10424501;28;1911;-74
2022/03/07 22:12:19;;;;;;;;;;;;;;;21.39;21.06;96178.16;10420964;28;1874;-73
2022/03/07 22:17:19;;;;;;;;;;;;;;;21.36;20.39;96168.13;10422342;28;1788;-73
2022/03/07 22:22:20;;;;;;;;;;;;;;;21.37;20.69;96164.44;10407163;28;1938;-74
2022/03/07 22:27:21;;;;;;;;;;;;;;;21.37;20.47;96159.16;10437705;28;1865;-72
2022/03/07 22:32:21;;;;;;;;;;;;;;;21.35;20.53;96156.00;10407666;28;1833;-74
2022/03/07 22:37:22;;;;;;;;;;;;;;;21.32;20.06;96141.50;10428377;28;1874;-73
2022/03/07 22:42:22;;;;;;;;;;;;;;;21.32;20.08;96140.72;10429817;28;2009;-73
2022/03/07 22:47:22;;;;;;;;;;;;;;;21.28;20.48;96135.19;10424280;28;1916;-72
2022/03/07 22:52:23;;;;;;;;;;;;;;;21.31;20.27;96139.91;10447704;28;1817;-73
2022/03/07 22:57:23;;;;;;;;;;;;;;;21.32;20.36;96138.06;10411997;28;1792;-74
2022/03/07 23:02:23;;;;;;;;;;;;;;;21.32;20.34;96130.16;10429269;28;1906;-72
2022/03/07 23:07:24;;;;;;;;;;;;;;;21.32;20.39;96124.88;10397106;28;1940;-73
2022/03/07 23:12:24;;;;;;;;;;;;;;;21.31;19.94;96125.97;10427265;28;1852;-73
2022/03/07 23:17:25;;;;;;;;;;;;;;;21.29;20.10;96128.09;10431720;28;1850;-73
2022/03/07 23:22:26;;;;;;;;;;;;;;;21.28;19.74;96127.28;10414015;28;2354;-72
2022/03/07 23:27:27;;;;;;;;;;;;;;;21.24;19.88;96122.81;10430354;28;1808;-74
2022/03/07 23:32:27;;;;;;;;;;;;;;;21.27;19.76;96122.28;10427738;28;1883;-74
2022/03/07 23:37:28;;;;;;;;;;;;;;;21.25;19.81;96124.38;10426506;28;1822;-73
2022/03/07 23:42:28;;;;;;;;;;;;;;;21.24;19.61;96117.53;10428703;28;1906;-73
2022/03/07 23:47:29;;;;;;;;;;;;;;;21.23;20.01;96114.09;10429118;28;1871;-74
2022/03/07 23:52:29;;;;;;;;;;;;;;;21.24;20.03;96110.44;10426848;28;2022;-73
2022/03/07 23:57:29;;;;;;;;;;;;;;;21.24;19.77;96122.81;10413505;28;1804;-74
